createdAt,value
2023-04-12T00:00:02.510Z,11.12
2023-04-12T00:01:02.504Z,11.12
2023-04-12T00:02:02.551Z,11.12
2023-04-12T00:03:02.576Z,11.12
2023-04-12T00:04:02.994Z,11.13
2023-04-12T00:05:02.628Z,11.13
2023-04-12T00:06:02.467Z,11.13
2023-04-12T00:07:02.447Z,11.13
2023-04-12T00:08:02.520Z,11.13
2023-04-12T00:09:02.457Z,11.16
2023-04-12T00:10:02.424Z,11.13
2023-04-12T00:11:02.394Z,11.12
2023-04-12T00:12:02.380Z,11.12
2023-04-12T00:13:02.395Z,11.12
2023-04-12T00:14:02.372Z,11.13
2023-04-12T00:15:02.367Z,11.12
2023-04-12T00:16:02.384Z,11.12
2023-04-12T00:17:02.345Z,11.11
2023-04-12T00:18:02.454Z,11.09
2023-04-12T00:19:02.324Z,11.09
2023-04-12T00:20:02.298Z,11.08
2023-04-12T00:21:02.357Z,11.09
2023-04-12T00:22:02.351Z,11.06
2023-04-12T00:23:02.273Z,11.05
2023-04-12T00:24:02.261Z,11.06
2023-04-12T00:25:02.295Z,11.05
2023-04-12T00:26:02.242Z,11.05
2023-04-12T00:27:02.251Z,11.05
2023-04-12T00:28:02.234Z,11.05
2023-04-12T00:29:02.225Z,11.06
2023-04-12T00:30:02.206Z,11.06
2023-04-12T00:31:02.246Z,11.08
2023-04-12T00:32:02.171Z,11.08
2023-04-12T00:33:02.247Z,11.06
2023-04-12T00:34:02.182Z,11.05
2023-04-12T00:35:02.147Z,11.06
2023-04-12T00:36:02.215Z,11.05
2023-04-12T00:37:02.125Z,11.05
2023-04-12T00:38:02.141Z,11.05
2023-04-12T00:39:02.108Z,11.06
2023-04-12T00:40:02.143Z,11.05
2023-04-12T00:41:02.084Z,11.06
2023-04-12T00:42:02.066Z,11.05
2023-04-12T00:43:02.061Z,11.03
2023-04-12T00:44:02.045Z,11.06
2023-04-12T00:45:02.041Z,11.05
2023-04-12T00:46:02.033Z,11.02
2023-04-12T00:47:02.074Z,10.99
2023-04-12T00:48:02.051Z,10.98
2023-04-12T00:49:02.071Z,10.93
2023-04-12T00:50:01.985Z,10.88
2023-04-12T00:51:01.990Z,10.86
2023-04-12T00:52:01.962Z,10.86
2023-04-12T00:53:01.966Z,10.80
2023-04-12T00:54:01.952Z,10.78
2023-04-12T00:55:01.958Z,10.72
2023-04-12T00:56:01.984Z,10.68
2023-04-12T00:57:01.905Z,10.66
2023-04-12T00:58:01.908Z,10.62
2023-04-12T00:59:01.901Z,10.60
2023-04-12T01:00:01.895Z,10.57
2023-04-12T01:01:01.932Z,10.55
2023-04-12T01:02:02.112Z,10.51
2023-04-12T01:03:01.996Z,10.47
2023-04-12T01:04:01.860Z,10.43
2023-04-12T01:05:01.820Z,10.42
2023-04-12T01:06:01.858Z,10.39
2023-04-12T01:07:01.802Z,10.36
2023-04-12T01:08:01.784Z,10.34
2023-04-12T01:09:01.788Z,10.32
2023-04-12T01:10:01.769Z,10.32
2023-04-12T01:11:01.811Z,10.31
2023-04-12T01:12:01.774Z,10.31
2023-04-12T01:13:01.755Z,10.29
2023-04-12T01:14:01.748Z,10.31
2023-04-12T01:15:01.728Z,10.28
2023-04-12T01:16:01.746Z,10.28
2023-04-12T01:17:01.692Z,10.25
2023-04-12T01:18:01.740Z,10.25
2023-04-12T01:19:01.709Z,10.22
2023-04-12T01:20:01.655Z,10.25
2023-04-12T01:21:01.643Z,10.26
2023-04-12T01:22:01.650Z,10.26
2023-04-12T01:23:01.641Z,10.24
2023-04-12T01:24:01.627Z,10.25
2023-04-12T01:25:01.623Z,10.25
2023-04-12T01:26:01.609Z,10.26
2023-04-12T01:27:01.582Z,10.28
2023-04-12T01:28:01.578Z,10.26
2023-04-12T01:29:01.592Z,10.25
2023-04-12T01:30:01.535Z,10.24
2023-04-12T01:31:01.522Z,10.24
2023-04-12T01:32:01.742Z,10.24
2023-04-12T01:33:01.539Z,10.24
2023-04-12T01:34:01.524Z,10.24
2023-04-12T01:35:01.503Z,10.22
2023-04-12T01:36:01.535Z,10.18
2023-04-12T01:37:01.505Z,10.14
2023-04-12T01:38:01.461Z,10.14
2023-04-12T01:39:01.450Z,10.14
2023-04-12T01:40:01.442Z,10.16
2023-04-12T01:41:01.431Z,10.13
2023-04-12T01:42:01.433Z,10.13
2023-04-12T01:43:01.401Z,10.13
2023-04-12T01:44:01.380Z,10.10
2023-04-12T01:45:01.402Z,10.10
2023-04-12T01:46:01.370Z,10.09
2023-04-12T01:47:01.387Z,10.10
2023-04-12T01:48:01.407Z,10.10
2023-04-12T01:49:01.330Z,10.10
2023-04-12T01:50:01.332Z,10.09
2023-04-12T01:51:01.410Z,10.10
2023-04-12T01:52:01.304Z,10.09
2023-04-12T01:53:01.334Z,10.09
2023-04-12T01:54:01.296Z,10.09
2023-04-12T01:55:01.272Z,10.04
2023-04-12T01:56:01.267Z,10.04
2023-04-12T01:57:01.262Z,9.99
2023-04-12T01:58:01.250Z,9.96
2023-04-12T01:59:01.228Z,9.96
2023-04-12T02:00:01.299Z,9.98
2023-04-12T02:01:01.261Z,9.98
2023-04-12T02:02:01.266Z,9.99
2023-04-12T02:03:01.302Z,10.01
2023-04-12T02:04:01.603Z,10.02
2023-04-12T02:05:01.176Z,10.04
2023-04-12T02:06:01.179Z,10.04
2023-04-12T02:07:01.141Z,10.01
2023-04-12T02:08:01.250Z,10.01
2023-04-12T02:09:01.125Z,10.02
2023-04-12T02:10:01.117Z,10.04
2023-04-12T02:11:01.111Z,10.02
2023-04-12T02:12:01.083Z,10.01
2023-04-12T02:13:01.087Z,10.01
2023-04-12T02:14:01.075Z,10.01
2023-04-12T02:15:01.095Z,10.02
2023-04-12T02:16:01.055Z,10.02
2023-04-12T02:17:01.246Z,10.04
2023-04-12T02:18:01.077Z,10.02
2023-04-12T02:19:01.014Z,9.99
2023-04-12T02:20:01.010Z,9.98
2023-04-12T02:21:01.012Z,9.96
2023-04-12T02:22:01.007Z,9.93
2023-04-12T02:23:00.995Z,9.89
2023-04-12T02:24:00.953Z,9.86
2023-04-12T02:25:00.962Z,9.86
2023-04-12T02:26:00.941Z,9.85
2023-04-12T02:27:00.951Z,9.86
2023-04-12T02:28:00.981Z,9.86
2023-04-12T02:29:00.922Z,9.89
2023-04-12T02:30:00.899Z,9.91
2023-04-12T02:31:00.959Z,9.91
2023-04-12T02:32:00.870Z,9.92
2023-04-12T02:33:00.903Z,9.93
2023-04-12T02:34:00.894Z,9.92
2023-04-12T02:35:00.841Z,9.92
2023-04-12T02:36:00.877Z,9.92
2023-04-12T02:37:00.831Z,9.92
2023-04-12T02:38:00.835Z,9.93
2023-04-12T02:39:01.073Z,9.91
2023-04-12T02:40:00.819Z,9.91
2023-04-12T02:41:00.802Z,9.88
2023-04-12T02:42:00.765Z,9.83
2023-04-12T02:43:00.764Z,9.80
2023-04-12T02:44:00.805Z,9.81
2023-04-12T02:45:00.730Z,9.80
2023-04-12T02:46:00.762Z,9.80
2023-04-12T02:47:00.725Z,9.80
2023-04-12T02:48:00.743Z,9.81
2023-04-12T02:49:00.724Z,9.81
2023-04-12T02:50:00.680Z,9.80
2023-04-12T02:51:00.681Z,9.80
2023-04-12T02:52:00.658Z,9.80
2023-04-12T02:53:00.645Z,9.81
2023-04-12T02:54:00.651Z,9.81
2023-04-12T02:55:00.642Z,9.83
2023-04-12T02:56:00.618Z,9.83
2023-04-12T02:57:00.625Z,9.83
2023-04-12T02:58:00.596Z,9.80
2023-04-12T02:59:00.583Z,9.78
2023-04-12T03:00:00.588Z,9.78
2023-04-12T03:01:00.629Z,9.75
2023-04-12T03:02:00.723Z,9.74
2023-04-12T03:03:00.650Z,9.74
2023-04-12T03:04:00.969Z,9.73
2023-04-12T03:05:00.532Z,9.71
2023-04-12T03:06:00.525Z,9.73
2023-04-12T03:07:00.510Z,9.71
2023-04-12T03:08:00.517Z,9.70
2023-04-12T03:09:00.483Z,9.68
2023-04-12T03:10:00.501Z,9.67
2023-04-12T03:11:00.473Z,9.67
2023-04-12T03:12:00.458Z,9.68
2023-04-12T03:13:00.437Z,9.68
2023-04-12T03:14:00.424Z,9.67
2023-04-12T03:15:00.425Z,9.63
2023-04-12T03:16:00.486Z,9.60
2023-04-12T03:17:00.392Z,9.58
2023-04-12T03:18:00.447Z,9.55
2023-04-12T03:19:00.374Z,9.52
2023-04-12T03:20:00.360Z,9.49
2023-04-12T03:21:00.343Z,9.50
2023-04-12T03:22:00.344Z,9.49
2023-04-12T03:23:00.333Z,9.49
2023-04-12T03:24:00.362Z,9.49
2023-04-12T03:25:00.306Z,9.50
2023-04-12T03:26:00.295Z,9.50
2023-04-12T03:27:00.286Z,9.49
2023-04-12T03:28:00.281Z,9.49
2023-04-12T03:29:00.267Z,9.49
2023-04-12T03:30:00.261Z,9.50
2023-04-12T03:31:00.314Z,9.48
2023-04-12T03:32:00.230Z,9.45
2023-04-12T03:33:00.363Z,9.42
2023-04-12T03:34:00.422Z,9.44
2023-04-12T03:35:00.193Z,9.45
2023-04-12T03:36:00.224Z,9.44
2023-04-12T03:37:00.204Z,9.44
2023-04-12T03:38:00.184Z,9.44
2023-04-12T03:39:00.152Z,9.42
2023-04-12T03:40:00.174Z,9.42
2023-04-12T03:41:00.144Z,9.45
2023-04-12T03:42:00.126Z,9.48
2023-04-12T03:43:01.889Z,9.49
2023-04-12T03:44:00.136Z,9.52
2023-04-12T03:45:00.108Z,9.52
2023-04-12T03:46:00.159Z,9.50
2023-04-12T03:47:00.086Z,9.52
2023-04-12T03:48:00.183Z,9.50
2023-04-12T03:49:00.048Z,9.49
2023-04-12T03:50:11.130Z,9.50
2023-04-12T03:51:01.036Z,9.48
2023-04-12T03:52:00.020Z,9.48
2023-04-12T03:53:00.006Z,9.48
2023-04-12T03:54:00.128Z,9.48
2023-04-12T03:55:00.018Z,9.48
2023-04-12T03:55:59.986Z,9.48
2023-04-12T03:56:59.963Z,9.48
2023-04-12T03:57:59.949Z,9.48
2023-04-12T03:58:59.945Z,9.49
2023-04-12T03:59:59.942Z,9.48
2023-04-12T04:00:59.930Z,9.48
2023-04-12T04:01:59.938Z,9.48
2023-04-12T04:02:59.962Z,9.45
2023-04-12T04:04:00.316Z,9.44
2023-04-12T04:04:59.904Z,9.44
2023-04-12T04:05:59.903Z,9.45
2023-04-12T04:06:59.849Z,9.45
2023-04-12T04:07:59.841Z,9.44
2023-04-12T04:08:59.848Z,9.44
2023-04-12T04:09:59.823Z,9.41
2023-04-12T04:10:59.826Z,9.41
2023-04-12T04:11:59.809Z,9.41
2023-04-12T04:12:59.826Z,9.41
2023-04-12T04:13:59.792Z,9.41
2023-04-12T04:14:59.770Z,9.38
2023-04-12T04:15:59.828Z,9.37
2023-04-12T04:16:59.750Z,9.37
2023-04-12T04:17:59.825Z,9.37
2023-04-12T04:18:59.723Z,9.35
2023-04-12T04:19:59.722Z,9.38
2023-04-12T04:20:59.706Z,9.35
2023-04-12T04:21:59.703Z,9.37
2023-04-12T04:22:59.686Z,9.34
2023-04-12T04:23:59.685Z,9.34
2023-04-12T04:24:59.663Z,9.32
2023-04-12T04:25:59.659Z,9.32
2023-04-12T04:26:59.662Z,9.32
2023-04-12T04:27:59.724Z,9.32
2023-04-12T04:28:59.623Z,9.31
2023-04-12T04:29:59.621Z,9.31
2023-04-12T04:30:59.600Z,9.31
2023-04-12T04:31:59.658Z,9.31
2023-04-12T04:32:59.594Z,9.31
2023-04-12T04:33:59.575Z,9.32
2023-04-12T04:34:59.555Z,9.32
2023-04-12T04:35:59.588Z,9.32
2023-04-12T04:36:59.538Z,9.32
2023-04-12T04:37:59.537Z,9.32
2023-04-12T04:38:59.534Z,9.31
2023-04-12T04:39:59.532Z,9.30
2023-04-12T04:40:59.524Z,9.32
2023-04-12T04:41:59.492Z,9.31
2023-04-12T04:42:59.474Z,9.30
2023-04-12T04:43:59.482Z,9.31
2023-04-12T04:44:59.458Z,9.31
2023-04-12T04:45:59.492Z,9.34
2023-04-12T04:46:59.430Z,9.34
2023-04-12T04:47:59.474Z,9.34
2023-04-12T04:48:59.461Z,9.35
2023-04-12T04:49:59.415Z,9.34
2023-04-12T04:50:59.389Z,9.35
2023-04-12T04:51:59.441Z,9.35
2023-04-12T04:52:59.368Z,9.37
2023-04-12T04:53:59.370Z,9.40
2023-04-12T04:54:59.352Z,9.38
2023-04-12T04:55:59.347Z,9.40
2023-04-12T04:56:59.331Z,9.41
2023-04-12T04:57:59.340Z,9.40
2023-04-12T04:58:59.704Z,9.40
2023-04-12T05:00:00.257Z,9.40
2023-04-12T05:00:59.303Z,9.38
2023-04-12T05:01:59.297Z,9.37
2023-04-12T05:02:59.371Z,9.35
2023-04-12T05:03:59.361Z,9.34
2023-04-12T05:04:59.239Z,9.35
2023-04-12T05:05:59.244Z,9.35
2023-04-12T05:06:59.218Z,9.34
2023-04-12T05:07:59.215Z,9.34
2023-04-12T05:08:59.442Z,9.34
2023-04-12T05:09:59.198Z,9.32
2023-04-12T05:10:59.192Z,9.32
2023-04-12T05:11:59.177Z,9.34
2023-04-12T05:12:59.162Z,9.34
2023-04-12T05:13:59.148Z,9.34
2023-04-12T05:15:11.041Z,9.35
2023-04-12T05:16:00.165Z,9.35
2023-04-12T05:16:59.215Z,9.37
2023-04-12T05:17:59.146Z,9.37
2023-04-12T05:18:59.276Z,9.38
2023-04-12T05:19:59.109Z,9.38
2023-04-12T05:20:59.069Z,9.37
2023-04-12T05:21:59.071Z,9.40
2023-04-12T05:22:59.048Z,9.40
2023-04-12T05:23:59.058Z,9.40
2023-04-12T05:24:59.030Z,9.42
2023-04-12T05:25:59.040Z,9.44
2023-04-12T05:26:59.003Z,9.42
2023-04-12T05:27:59.000Z,9.44
2023-04-12T05:28:59.100Z,9.45
2023-04-12T05:29:58.976Z,9.44
2023-04-12T05:30:59.043Z,9.44
2023-04-12T05:31:58.952Z,9.48
2023-04-12T05:32:59.013Z,9.44
2023-04-12T05:33:58.947Z,9.44
2023-04-12T05:34:58.948Z,9.45
2023-04-12T05:35:58.955Z,9.44
2023-04-12T05:36:58.906Z,9.45
2023-04-12T05:37:58.894Z,9.45
2023-04-12T05:38:59.033Z,9.44
2023-04-12T05:39:58.885Z,9.45
2023-04-12T05:40:58.864Z,9.42
2023-04-12T05:41:58.858Z,9.44
2023-04-12T05:42:58.843Z,9.42
2023-04-12T05:43:58.827Z,9.41
2023-04-12T05:44:58.812Z,9.44
2023-04-12T05:45:58.886Z,9.44
2023-04-12T05:46:58.790Z,9.44
2023-04-12T05:47:58.838Z,9.44
2023-04-12T05:48:59.085Z,9.44
2023-04-12T05:49:58.768Z,9.44
2023-04-12T05:50:58.748Z,9.44
2023-04-12T05:51:58.756Z,9.48
2023-04-12T05:52:58.746Z,9.49
2023-04-12T05:53:58.721Z,9.49
2023-04-12T05:54:58.707Z,9.50
2023-04-12T05:55:58.718Z,9.50
2023-04-12T05:56:58.714Z,9.52
2023-04-12T05:57:58.849Z,9.52
2023-04-12T05:58:58.790Z,9.53
2023-04-12T05:59:58.665Z,9.55
2023-04-12T06:00:58.657Z,9.55
2023-04-12T06:01:58.673Z,9.56
2023-04-12T06:02:58.833Z,9.58
2023-04-12T06:03:58.736Z,9.59
2023-04-12T06:04:58.780Z,9.62
2023-04-12T06:05:58.601Z,9.63
2023-04-12T06:06:58.601Z,9.62
2023-04-12T06:07:58.668Z,9.62
2023-04-12T06:08:58.712Z,9.62
2023-04-12T06:09:58.559Z,9.60
2023-04-12T06:10:58.550Z,9.62
2023-04-12T06:11:58.534Z,9.63
2023-04-12T06:12:58.530Z,9.60
2023-04-12T06:13:58.515Z,9.62
2023-04-12T06:14:58.501Z,9.62
2023-04-12T06:15:58.542Z,9.63
2023-04-12T06:16:58.488Z,9.63
2023-04-12T06:17:58.508Z,9.65
2023-04-12T06:18:58.737Z,9.63
2023-04-12T06:19:58.452Z,9.67
2023-04-12T06:20:58.437Z,9.67
2023-04-12T06:21:58.428Z,9.68
2023-04-12T06:22:58.436Z,9.70
2023-04-12T06:23:58.426Z,9.71
2023-04-12T06:24:58.406Z,9.70
2023-04-12T06:25:58.390Z,9.71
2023-04-12T06:26:58.398Z,9.73
2023-04-12T06:27:58.380Z,9.73
2023-04-12T06:28:58.656Z,9.75
2023-04-12T06:29:58.348Z,9.78
2023-04-12T06:30:59.069Z,9.77
2023-04-12T06:31:58.330Z,9.78
2023-04-12T06:32:58.429Z,9.81
2023-04-12T06:33:58.428Z,9.81
2023-04-12T06:34:58.283Z,9.83
2023-04-12T06:35:58.992Z,9.86
2023-04-12T06:36:58.272Z,9.85
2023-04-12T06:37:58.961Z,9.86
2023-04-12T06:38:58.490Z,9.88
2023-04-12T06:39:59.244Z,9.88
2023-04-12T06:40:58.235Z,9.88
2023-04-12T06:41:59.253Z,9.88
2023-04-12T06:42:58.213Z,9.88
2023-04-12T06:43:58.330Z,9.89
2023-04-12T06:44:58.192Z,9.91
2023-04-12T06:45:58.903Z,9.91
2023-04-12T06:46:58.264Z,9.93
2023-04-12T06:47:58.191Z,9.93
2023-04-12T06:48:58.455Z,9.93
2023-04-12T06:49:58.162Z,9.95
2023-04-12T06:50:58.111Z,9.96
2023-04-12T06:51:58.249Z,9.98
2023-04-12T06:52:58.092Z,9.99
2023-04-12T06:53:58.099Z,10.01
2023-04-12T06:54:58.067Z,10.02
2023-04-12T06:55:58.049Z,10.04
2023-04-12T06:56:58.055Z,10.04
2023-04-12T06:57:58.041Z,10.06
2023-04-12T06:58:58.185Z,10.09
2023-04-12T06:59:58.015Z,10.09
2023-04-12T07:00:58.040Z,10.10
2023-04-12T07:01:58.021Z,10.11
2023-04-12T07:02:58.064Z,10.13
2023-04-12T07:03:58.026Z,10.14
2023-04-12T07:04:57.995Z,10.16
2023-04-12T07:05:57.967Z,10.16
2023-04-12T07:06:57.939Z,10.17
2023-04-12T07:07:57.944Z,10.17
2023-04-12T07:08:59.851Z,10.20
2023-04-12T07:09:58.194Z,10.22
2023-04-12T07:10:57.900Z,10.26
2023-04-12T07:11:57.935Z,10.26
2023-04-12T07:12:59.658Z,10.26
2023-04-12T07:13:57.869Z,10.26
2023-04-12T07:14:57.863Z,10.26
2023-04-12T07:15:57.880Z,10.24
2023-04-12T07:16:57.883Z,10.26
2023-04-12T07:17:57.877Z,10.24
2023-04-12T07:18:57.943Z,10.20
2023-04-12T07:19:57.802Z,10.22
2023-04-12T07:20:57.801Z,10.25
2023-04-12T07:21:58.053Z,10.25
2023-04-12T07:22:57.784Z,10.25
2023-04-12T07:23:57.778Z,10.26
2023-04-12T07:24:59.671Z,10.26
2023-04-12T07:25:57.739Z,10.25
2023-04-12T07:26:57.736Z,10.28
2023-04-12T07:27:57.722Z,10.28
2023-04-12T07:28:57.921Z,10.26
2023-04-12T07:29:58.709Z,10.31
2023-04-12T07:30:57.692Z,10.32
2023-04-12T07:31:57.669Z,10.34
2023-04-12T07:33:08.685Z,10.35
2023-04-12T07:33:58.787Z,10.35
2023-04-12T07:34:57.665Z,10.35
2023-04-12T07:35:57.681Z,10.38
2023-04-12T07:36:57.637Z,10.42
2023-04-12T07:37:58.382Z,10.42
2023-04-12T07:38:57.922Z,10.44
2023-04-12T07:39:57.627Z,10.46
2023-04-12T07:40:57.602Z,10.47
2023-04-12T07:41:58.361Z,10.49
2023-04-12T07:42:57.604Z,10.49
2023-04-12T07:43:57.545Z,10.47
2023-04-12T07:44:57.594Z,10.49
2023-04-12T07:45:57.639Z,10.47
2023-04-12T07:46:57.674Z,10.51
2023-04-12T07:47:57.630Z,10.49
2023-04-12T07:48:57.642Z,10.52
2023-04-12T07:49:57.516Z,10.52
2023-04-12T07:50:57.480Z,10.52
2023-04-12T07:51:57.497Z,10.55
2023-04-12T07:52:57.487Z,10.52
2023-04-12T07:53:57.593Z,10.52
2023-04-12T07:54:57.432Z,10.52
2023-04-12T07:55:57.419Z,10.54
2023-04-12T07:56:57.408Z,10.52
2023-04-12T07:57:57.396Z,10.55
2023-04-12T07:58:57.815Z,10.55
2023-04-12T07:59:57.373Z,10.57
2023-04-12T08:00:59.192Z,10.57
2023-04-12T08:01:57.423Z,10.58
2023-04-12T08:02:57.757Z,10.60
2023-04-12T08:03:57.782Z,10.62
2023-04-12T08:04:57.343Z,10.63
2023-04-12T08:05:57.386Z,10.65
2023-04-12T08:06:57.606Z,10.69
2023-04-12T08:07:57.297Z,10.72
2023-04-12T08:08:57.279Z,10.73
2023-04-12T08:09:57.272Z,10.76
2023-04-12T08:10:57.280Z,10.76
2023-04-12T08:11:57.256Z,10.78
2023-04-12T08:12:57.269Z,10.80
2023-04-12T08:13:57.496Z,10.81
2023-04-12T08:14:57.226Z,10.83
2023-04-12T08:15:58.236Z,10.80
2023-04-12T08:16:57.221Z,10.81
2023-04-12T08:17:57.267Z,10.81
2023-04-12T08:18:57.468Z,10.81
2023-04-12T08:19:57.169Z,10.81
2023-04-12T08:20:57.158Z,10.81
2023-04-12T08:21:57.150Z,10.86
2023-04-12T08:22:57.135Z,10.81
2023-04-12T08:23:57.433Z,10.83
2023-04-12T08:24:57.111Z,10.83
2023-04-12T08:25:57.102Z,10.86
2023-04-12T08:26:57.104Z,10.87
2023-04-12T08:27:57.077Z,10.87
2023-04-12T08:28:57.082Z,10.88
2023-04-12T08:29:57.057Z,10.88
2023-04-12T08:30:57.078Z,10.90
2023-04-12T08:31:57.036Z,10.90
2023-04-12T08:32:57.038Z,10.93
2023-04-12T08:33:57.991Z,10.94
2023-04-12T08:34:57.002Z,10.94
2023-04-12T08:35:57.068Z,10.98
2023-04-12T08:36:56.982Z,10.99
2023-04-12T08:37:56.971Z,11.01
2023-04-12T08:38:57.266Z,11.03
2023-04-12T08:39:56.967Z,11.02
2023-04-12T08:40:56.937Z,11.05
2023-04-12T08:41:56.935Z,11.05
2023-04-12T08:42:56.920Z,11.08
2023-04-12T08:43:57.062Z,11.11
2023-04-12T08:44:56.914Z,11.12
2023-04-12T08:45:56.884Z,11.13
2023-04-12T08:46:57.021Z,11.13
2023-04-12T08:47:56.883Z,11.17
2023-04-12T08:48:56.875Z,11.17
2023-04-12T08:49:56.844Z,11.17
2023-04-12T08:50:56.875Z,11.20
2023-04-12T08:51:56.821Z,11.24
2023-04-12T08:52:56.821Z,11.26
2023-04-12T08:53:57.065Z,11.30
2023-04-12T08:54:57.075Z,11.33
2023-04-12T08:55:56.818Z,11.36
2023-04-12T08:56:56.778Z,11.38
2023-04-12T08:57:56.793Z,11.41
2023-04-12T08:58:56.755Z,11.41
2023-04-12T08:59:56.750Z,11.42
2023-04-12T09:00:57.539Z,11.44
2023-04-12T09:01:56.838Z,11.45
2023-04-12T09:02:56.967Z,11.48
2023-04-12T09:03:57.099Z,11.49
2023-04-12T09:04:56.748Z,11.51
2023-04-12T09:05:56.706Z,11.56
2023-04-12T09:06:56.675Z,11.54
2023-04-12T09:07:56.653Z,11.54
2023-04-12T09:08:56.696Z,11.56
2023-04-12T09:09:56.652Z,11.59
2023-04-12T09:10:56.651Z,11.60
2023-04-12T09:11:56.608Z,11.63
2023-04-12T09:12:56.600Z,11.64
2023-04-12T09:13:57.121Z,11.66
2023-04-12T09:14:56.680Z,11.67
2023-04-12T09:15:56.611Z,11.69
2023-04-12T09:16:56.891Z,11.72
2023-04-12T09:17:56.593Z,11.77
2023-04-12T09:18:56.860Z,11.78
2023-04-12T09:19:56.540Z,11.81
2023-04-12T09:20:56.521Z,11.84
2023-04-12T09:21:56.500Z,11.88
2023-04-12T09:22:56.509Z,11.93
2023-04-12T09:23:56.977Z,11.96
2023-04-12T09:24:56.486Z,12.00
2023-04-12T09:25:56.493Z,12.04
2023-04-12T09:26:56.456Z,12.00
2023-04-12T09:27:56.477Z,12.01
2023-04-12T09:28:56.773Z,12.04
2023-04-12T09:29:57.519Z,12.08
2023-04-12T09:30:56.462Z,12.15
2023-04-12T09:31:56.558Z,12.19
2023-04-12T09:32:56.458Z,12.21
2023-04-12T09:33:56.651Z,12.22
2023-04-12T09:34:56.374Z,12.22
2023-04-12T09:35:56.399Z,12.21
2023-04-12T09:36:56.350Z,12.19
2023-04-12T09:37:56.344Z,12.21
2023-04-12T09:38:56.332Z,12.19
2023-04-12T09:39:56.308Z,12.19
2023-04-12T09:40:56.366Z,12.19
2023-04-12T09:41:56.298Z,12.23
2023-04-12T09:42:56.284Z,12.26
2023-04-12T09:43:56.628Z,12.26
2023-04-12T09:44:56.256Z,12.26
2023-04-12T09:45:57.179Z,12.31
2023-04-12T09:46:56.365Z,12.33
2023-04-12T09:47:56.261Z,12.36
2023-04-12T09:48:56.238Z,12.38
2023-04-12T09:49:56.200Z,12.38
2023-04-12T09:50:56.195Z,12.40
2023-04-12T09:51:58.243Z,12.38
2023-04-12T09:52:56.251Z,12.41
2023-04-12T09:53:56.450Z,12.48
2023-04-12T09:54:56.162Z,12.52
2023-04-12T09:55:56.156Z,12.54
2023-04-12T09:56:57.081Z,12.58
2023-04-12T09:57:56.180Z,12.66
2023-04-12T09:58:56.553Z,12.70
2023-04-12T09:59:56.109Z,12.74
2023-04-12T10:00:56.137Z,12.76
2023-04-12T10:01:56.302Z,12.80
2023-04-12T10:02:56.942Z,12.81
2023-04-12T10:03:56.401Z,12.87
2023-04-12T10:04:56.217Z,12.87
2023-04-12T10:05:56.025Z,12.89
2023-04-12T10:06:56.021Z,12.94
2023-04-12T10:07:56.476Z,12.99
2023-04-12T10:08:56.297Z,13.09
2023-04-12T10:09:55.983Z,13.17
2023-04-12T10:10:55.986Z,13.21
2023-04-12T10:11:55.978Z,13.28
2023-04-12T10:12:55.991Z,13.31
2023-04-12T10:13:56.178Z,13.35
2023-04-12T10:14:55.938Z,13.43
2023-04-12T10:15:55.970Z,13.41
2023-04-12T10:16:55.927Z,13.44
2023-04-12T10:17:55.957Z,13.47
2023-04-12T10:18:56.108Z,13.53
2023-04-12T10:19:55.880Z,13.50
2023-04-12T10:20:56.190Z,13.53
2023-04-12T10:21:55.855Z,13.54
2023-04-12T10:22:55.858Z,13.61
2023-04-12T10:23:55.856Z,13.66
2023-04-12T10:24:55.849Z,13.75
2023-04-12T10:25:55.869Z,13.79
2023-04-12T10:26:55.808Z,13.75
2023-04-12T10:27:55.811Z,13.76
2023-04-12T10:28:56.072Z,13.80
2023-04-12T10:29:55.771Z,13.86
2023-04-12T10:30:55.787Z,13.91
2023-04-12T10:31:55.806Z,13.88
2023-04-12T10:32:55.756Z,13.88
2023-04-12T10:33:55.758Z,13.88
2023-04-12T10:34:55.751Z,13.87
2023-04-12T10:35:56.187Z,13.87
2023-04-12T10:36:55.736Z,13.80
2023-04-12T10:37:55.698Z,13.76
2023-04-12T10:38:56.349Z,13.75
2023-04-12T10:39:55.688Z,13.79
2023-04-12T10:40:55.662Z,13.83
2023-04-12T10:41:55.675Z,13.84
2023-04-12T10:42:55.675Z,13.87
2023-04-12T10:43:55.911Z,13.88
2023-04-12T10:44:56.251Z,14.01
2023-04-12T10:45:55.600Z,14.06
2023-04-12T10:46:55.626Z,14.11
2023-04-12T10:47:55.611Z,14.12
2023-04-12T10:48:55.922Z,14.20
2023-04-12T10:49:55.561Z,14.21
2023-04-12T10:50:55.584Z,14.21
2023-04-12T10:51:55.540Z,14.23
2023-04-12T10:52:55.538Z,14.24
2023-04-12T10:53:55.799Z,14.24
2023-04-12T10:54:55.512Z,14.19
2023-04-12T10:55:55.526Z,14.19
2023-04-12T10:56:55.527Z,14.21
2023-04-12T10:57:55.512Z,14.26
2023-04-12T10:58:55.593Z,14.34
2023-04-12T10:59:55.464Z,14.36
2023-04-12T11:00:55.577Z,14.41
2023-04-12T11:01:55.584Z,14.44
2023-04-12T11:02:55.532Z,14.46
2023-04-12T11:03:55.868Z,14.52
2023-04-12T11:04:55.404Z,14.54
2023-04-12T11:05:56.427Z,14.53
2023-04-12T11:06:56.851Z,14.49
2023-04-12T11:07:56.881Z,14.56
2023-04-12T11:08:55.437Z,14.63
2023-04-12T11:09:56.378Z,14.69
2023-04-12T11:10:55.348Z,14.71
2023-04-12T11:11:56.373Z,14.71
2023-04-12T11:12:55.358Z,14.75
2023-04-12T11:13:55.563Z,14.72
2023-04-12T11:14:56.703Z,14.67
2023-04-12T11:15:56.014Z,14.60
2023-04-12T11:16:55.331Z,14.56
2023-04-12T11:17:56.400Z,14.49
2023-04-12T11:18:55.594Z,14.48
2023-04-12T11:19:55.830Z,14.48
2023-04-12T11:20:55.235Z,14.48
2023-04-12T11:21:55.670Z,14.56
2023-04-12T11:22:55.257Z,14.59
2023-04-12T11:23:55.250Z,14.60
2023-04-12T11:24:55.248Z,14.61
2023-04-12T11:25:55.901Z,14.60
2023-04-12T11:26:55.181Z,14.63
2023-04-12T11:27:55.891Z,14.61
2023-04-12T11:28:55.474Z,14.61
2023-04-12T11:29:56.462Z,14.66
2023-04-12T11:30:55.118Z,14.67
2023-04-12T11:31:55.930Z,14.71
2023-04-12T11:32:55.113Z,14.75
2023-04-12T11:33:55.818Z,14.80
2023-04-12T11:34:55.145Z,14.80
2023-04-12T11:35:55.798Z,14.80
2023-04-12T11:36:55.137Z,14.83
2023-04-12T11:37:55.080Z,14.83
2023-04-12T11:38:55.034Z,14.79
2023-04-12T11:39:56.020Z,14.80
2023-04-12T11:40:55.024Z,14.80
2023-04-12T11:41:56.023Z,14.86
2023-04-12T11:42:56.404Z,14.90
2023-04-12T11:43:55.607Z,14.95
2023-04-12T11:44:58.967Z,14.95
2023-04-12T11:45:56.808Z,14.98
2023-04-12T11:46:54.962Z,15.01
2023-04-12T11:47:56.005Z,15.04
2023-04-12T11:48:55.027Z,15.05
2023-04-12T11:49:54.972Z,15.12
2023-04-12T11:51:07.627Z,15.09
2023-04-12T11:51:55.957Z,15.05
2023-04-12T11:52:55.259Z,15.05
2023-04-12T11:53:55.979Z,15.09
2023-04-12T11:54:54.890Z,15.05
2023-04-12T11:55:55.575Z,15.05
2023-04-12T11:56:54.877Z,15.05
2023-04-12T11:57:54.845Z,15.11
2023-04-12T11:58:54.820Z,15.12
2023-04-12T11:59:54.809Z,15.16
2023-04-12T12:00:54.795Z,15.16
2023-04-12T12:01:54.883Z,15.22
2023-04-12T12:03:06.755Z,15.23
2023-04-12T12:03:56.090Z,15.28
2023-04-12T12:04:55.236Z,15.34
2023-04-12T12:05:55.035Z,15.40
2023-04-12T12:06:55.025Z,15.44
2023-04-12T12:07:54.739Z,15.46
2023-04-12T12:08:55.005Z,15.44
2023-04-12T12:09:54.712Z,15.48
2023-04-12T12:11:07.125Z,15.49
2023-04-12T12:11:55.800Z,15.53
2023-04-12T12:12:54.708Z,15.59
2023-04-12T12:13:54.657Z,15.62
2023-04-12T12:14:54.640Z,15.68
2023-04-12T12:15:55.025Z,15.68
2023-04-12T12:16:54.622Z,15.73
2023-04-12T12:17:54.629Z,15.77
2023-04-12T12:18:55.375Z,15.74
2023-04-12T12:19:54.639Z,15.73
2023-04-12T12:20:55.807Z,15.77
2023-04-12T12:21:54.690Z,15.84
2023-04-12T12:22:55.307Z,15.86
2023-04-12T12:23:54.594Z,15.89
2023-04-12T12:24:55.300Z,15.98
2023-04-12T12:26:00.209Z,15.99
2023-04-12T12:26:56.244Z,16.06
2023-04-12T12:27:54.588Z,16.10
2023-04-12T12:28:55.234Z,16.08
2023-04-12T12:29:54.507Z,16.14
2023-04-12T12:30:55.165Z,16.14
2023-04-12T12:31:55.330Z,16.07
2023-04-12T12:32:54.563Z,16.03
2023-04-12T12:33:54.529Z,16.06
2023-04-12T12:34:54.494Z,16.04
2023-04-12T12:35:54.471Z,16.06
2023-04-12T12:36:54.411Z,16.04
2023-04-12T12:37:54.415Z,16.01
2023-04-12T12:38:54.418Z,16.04
2023-04-12T12:39:54.379Z,16.14
2023-04-12T12:40:54.563Z,16.30
2023-04-12T12:41:54.408Z,16.41
2023-04-12T12:42:54.351Z,16.65
2023-04-12T12:43:54.353Z,17.02
2023-04-12T12:44:54.338Z,17.28
2023-04-12T12:45:54.372Z,17.47
2023-04-12T12:47:00.810Z,17.84
2023-04-12T12:47:55.414Z,17.92
2023-04-12T12:48:54.292Z,17.84
2023-04-12T12:49:54.283Z,17.84
2023-04-12T12:50:54.315Z,17.98
2023-04-12T12:51:54.302Z,17.98
2023-04-12T12:52:54.250Z,18.01
2023-04-12T12:53:54.242Z,17.87
2023-04-12T12:54:54.218Z,17.81
2023-04-12T12:55:54.211Z,17.79
2023-04-12T12:56:54.215Z,17.76
2023-04-12T12:58:06.767Z,17.73
2023-04-12T12:58:55.294Z,17.63
2023-04-12T12:59:54.169Z,17.51
2023-04-12T13:00:54.447Z,17.45